sensor_id;sensor_type;location;lat;lon;timestamp;P1;durP1;ratioP1;P2;durP2;ratioP2
29370;SDS011;16357;52.188;7.838;2024-03-02T00:00:39;7.60;;;5.28;;
29370;SDS011;16357;52.188;7.838;2024-03-02T00:03:07;5.55;;;4.63;;
29370;SDS011;16357;52.188;7.838;2024-03-02T00:05:35;7.30;;;5.22;;
29370;SDS011;16357;52.188;7.838;2024-03-02T00:08:02;6.20;;;4.80;;
29370;SDS011;16357;52.188;7.838;2024-03-02T00:10:37;6.68;;;5.05;;
29370;SDS011;16357;52.188;7.838;2024-03-02T00:13:08;6.45;;;4.97;;
29370;SDS011;16357;52.188;7.838;2024-03-02T00:15:42;6.57;;;5.00;;
29370;SDS011;16357;52.188;7.838;2024-03-02T00:18:20;7.50;;;5.30;;
29370;SDS011;16357;52.188;7.838;2024-03-02T00:20:54;6.55;;;4.93;;
29370;SDS011;16357;52.188;7.838;2024-03-02T00:23:22;7.22;;;5.32;;
29370;SDS011;16357;52.188;7.838;2024-03-02T00:25:50;6.63;;;5.05;;
29370;SDS011;16357;52.188;7.838;2024-03-02T00:28:31;8.27;;;5.10;;
29370;SDS011;16357;52.188;7.838;2024-03-02T00:31:05;7.07;;;5.18;;
29370;SDS011;16357;52.188;7.838;2024-03-02T00:33:44;7.53;;;5.43;;
29370;SDS011;16357;52.188;7.838;2024-03-02T00:36:13;6.47;;;5.18;;
29370;SDS011;16357;52.188;7.838;2024-03-02T00:38:45;7.03;;;5.30;;
29370;SDS011;16357;52.188;7.838;2024-03-02T00:43:57;7.38;;;5.60;;
29370;SDS011;16357;52.188;7.838;2024-03-02T00:46:23;7.88;;;5.72;;
29370;SDS011;16357;52.188;7.838;2024-03-02T00:48:54;6.72;;;5.50;;
29370;SDS011;16357;52.188;7.838;2024-03-02T00:51:29;8.27;;;5.95;;
29370;SDS011;16357;52.188;7.838;2024-03-02T00:54:00;8.63;;;5.85;;
29370;SDS011;16357;52.188;7.838;2024-03-02T00:56:31;7.72;;;5.75;;
29370;SDS011;16357;52.188;7.838;2024-03-02T00:58:58;7.55;;;5.60;;
29370;SDS011;16357;52.188;7.838;2024-03-02T01:01:24;7.03;;;5.32;;
29370;SDS011;16357;52.188;7.838;2024-03-02T01:03:51;7.32;;;5.45;;
29370;SDS011;16357;52.188;7.838;2024-03-02T01:06:19;10.00;;;5.80;;
29370;SDS011;16357;52.188;7.838;2024-03-02T01:08:45;7.72;;;5.47;;
29370;SDS011;16357;52.188;7.838;2024-03-02T01:11:16;7.10;;;5.65;;
29370;SDS011;16357;52.188;7.838;2024-03-02T01:13:50;7.45;;;5.88;;
29370;SDS011;16357;52.188;7.838;2024-03-02T01:16:18;7.63;;;5.55;;
29370;SDS011;16357;52.188;7.838;2024-03-02T01:18:45;7.32;;;5.35;;
29370;SDS011;16357;52.188;7.838;2024-03-02T01:21:12;9.40;;;5.95;;
29370;SDS011;16357;52.188;7.838;2024-03-02T01:23:39;8.32;;;5.95;;
29370;SDS011;16357;52.188;7.838;2024-03-02T01:26:05;9.55;;;6.10;;
29370;SDS011;16357;52.188;7.838;2024-03-02T01:28:32;7.55;;;5.45;;
29370;SDS011;16357;52.188;7.838;2024-03-02T01:30:58;7.07;;;5.55;;
29370;SDS011;16357;52.188;7.838;2024-03-02T01:33:24;8.52;;;6.00;;
29370;SDS011;16357;52.188;7.838;2024-03-02T01:35:51;7.18;;;5.70;;
29370;SDS011;16357;52.188;7.838;2024-03-02T01:38:17;7.70;;;5.90;;
29370;SDS011;16357;52.188;7.838;2024-03-02T01:40:44;6.72;;;5.25;;
29370;SDS011;16357;52.188;7.838;2024-03-02T01:43:11;8.05;;;5.95;;
29370;SDS011;16357;52.188;7.838;2024-03-02T01:45:37;8.60;;;6.28;;
29370;SDS011;16357;52.188;7.838;2024-03-02T01:48:04;7.90;;;6.05;;
29370;SDS011;16357;52.188;7.838;2024-03-02T01:50:33;10.35;;;6.47;;
29370;SDS011;16357;52.188;7.838;2024-03-02T01:53:00;9.68;;;6.85;;
29370;SDS011;16357;52.188;7.838;2024-03-02T01:55:28;8.38;;;6.28;;
29370;SDS011;16357;52.188;7.838;2024-03-02T01:57:56;9.50;;;6.22;;
29370;SDS011;16357;52.188;7.838;2024-03-02T02:00:24;9.10;;;6.32;;
29370;SDS011;16357;52.188;7.838;2024-03-02T02:02:53;8.38;;;6.30;;
29370;SDS011;16357;52.188;7.838;2024-03-02T02:05:20;8.05;;;5.93;;
29370;SDS011;16357;52.188;7.838;2024-03-02T02:07:46;10.18;;;6.75;;
29370;SDS011;16357;52.188;7.838;2024-03-02T02:10:13;7.10;;;5.93;;
29370;SDS011;16357;52.188;7.838;2024-03-02T02:12:39;8.30;;;6.60;;
29370;SDS011;16357;52.188;7.838;2024-03-02T02:17:53;8.65;;;6.50;;
29370;SDS011;16357;52.188;7.838;2024-03-02T02:20:21;10.65;;;6.68;;
29370;SDS011;16357;52.188;7.838;2024-03-02T02:23:01;9.40;;;6.95;;
29370;SDS011;16357;52.188;7.838;2024-03-02T02:25:29;8.40;;;6.45;;
29370;SDS011;16357;52.188;7.838;2024-03-02T02:27:56;9.40;;;6.63;;
29370;SDS011;16357;52.188;7.838;2024-03-02T02:30:27;8.32;;;6.53;;
29370;SDS011;16357;52.188;7.838;2024-03-02T02:32:55;10.60;;;6.95;;
29370;SDS011;16357;52.188;7.838;2024-03-02T02:35:22;8.48;;;6.47;;
29370;SDS011;16357;52.188;7.838;2024-03-02T02:37:50;7.88;;;6.55;;
29370;SDS011;16357;52.188;7.838;2024-03-02T02:40:19;7.82;;;6.22;;
29370;SDS011;16357;52.188;7.838;2024-03-02T02:42:46;9.95;;;6.88;;
29370;SDS011;16357;52.188;7.838;2024-03-02T02:45:12;9.35;;;7.03;;
29370;SDS011;16357;52.188;7.838;2024-03-02T02:47:41;10.25;;;7.03;;
29370;SDS011;16357;52.188;7.838;2024-03-02T02:50:08;10.07;;;7.63;;
29370;SDS011;16357;52.188;7.838;2024-03-02T02:52:36;9.13;;;6.53;;
29370;SDS011;16357;52.188;7.838;2024-03-02T02:55:06;8.40;;;6.80;;
29370;SDS011;16357;52.188;7.838;2024-03-02T02:57:35;9.75;;;7.28;;
29370;SDS011;16357;52.188;7.838;2024-03-02T03:00:07;10.05;;;6.93;;
29370;SDS011;16357;52.188;7.838;2024-03-02T03:02:48;9.13;;;6.78;;
29370;SDS011;16357;52.188;7.838;2024-03-02T03:05:16;8.75;;;6.63;;
29370;SDS011;16357;52.188;7.838;2024-03-02T03:07:44;8.90;;;6.75;;
29370;SDS011;16357;52.188;7.838;2024-03-02T03:10:11;9.25;;;7.03;;
29370;SDS011;16357;52.188;7.838;2024-03-02T03:12:40;9.07;;;6.95;;
29370;SDS011;16357;52.188;7.838;2024-03-02T03:15:08;9.00;;;6.45;;
29370;SDS011;16357;52.188;7.838;2024-03-02T03:17:36;9.65;;;7.00;;
29370;SDS011;16357;52.188;7.838;2024-03-02T03:20:03;9.05;;;6.85;;
29370;SDS011;16357;52.188;7.838;2024-03-02T03:22:31;8.73;;;6.65;;
29370;SDS011;16357;52.188;7.838;2024-03-02T03:24:58;8.88;;;6.65;;
29370;SDS011;16357;52.188;7.838;2024-03-02T03:27:25;9.02;;;7.10;;
29370;SDS011;16357;52.188;7.838;2024-03-02T03:29:52;10.77;;;7.40;;
29370;SDS011;16357;52.188;7.838;2024-03-02T03:32:19;8.77;;;6.80;;
29370;SDS011;16357;52.188;7.838;2024-03-02T03:34:45;8.73;;;6.63;;
29370;SDS011;16357;52.188;7.838;2024-03-02T03:39:44;9.82;;;7.60;;
29370;SDS011;16357;52.188;7.838;2024-03-02T03:42:10;10.05;;;7.18;;
29370;SDS011;16357;52.188;7.838;2024-03-02T03:44:37;10.13;;;7.30;;
29370;SDS011;16357;52.188;7.838;2024-03-02T03:47:03;9.93;;;6.88;;
29370;SDS011;16357;52.188;7.838;2024-03-02T03:49:30;9.15;;;6.93;;
29370;SDS011;16357;52.188;7.838;2024-03-02T03:51:56;10.10;;;6.80;;
29370;SDS011;16357;52.188;7.838;2024-03-02T03:54:23;10.07;;;7.47;;
29370;SDS011;16357;52.188;7.838;2024-03-02T03:56:49;9.10;;;6.93;;
29370;SDS011;16357;52.188;7.838;2024-03-02T03:59:16;9.57;;;7.45;;
29370;SDS011;16357;52.188;7.838;2024-03-02T04:01:42;9.82;;;6.90;;
29370;SDS011;16357;52.188;7.838;2024-03-02T04:04:09;12.77;;;7.00;;
29370;SDS011;16357;52.188;7.838;2024-03-02T04:06:35;10.13;;;7.55;;
29370;SDS011;16357;52.188;7.838;2024-03-02T04:09:02;10.15;;;7.30;;
29370;SDS011;16357;52.188;7.838;2024-03-02T04:11:30;9.80;;;7.47;;
29370;SDS011;16357;52.188;7.838;2024-03-02T04:13:56;9.93;;;7.18;;
29370;SDS011;16357;52.188;7.838;2024-03-02T04:16:24;9.50;;;7.03;;
29370;SDS011;16357;52.188;7.838;2024-03-02T04:18:50;9.25;;;7.40;;
29370;SDS011;16357;52.188;7.838;2024-03-02T04:21:17;9.75;;;7.38;;
29370;SDS011;16357;52.188;7.838;2024-03-02T04:23:43;10.13;;;7.25;;
29370;SDS011;16357;52.188;7.838;2024-03-02T04:26:10;13.63;;;7.75;;
29370;SDS011;16357;52.188;7.838;2024-03-02T04:28:36;9.35;;;7.03;;
29370;SDS011;16357;52.188;7.838;2024-03-02T04:31:03;9.95;;;7.03;;
29370;SDS011;16357;52.188;7.838;2024-03-02T04:33:29;10.27;;;7.28;;
29370;SDS011;16357;52.188;7.838;2024-03-02T04:35:56;13.18;;;7.22;;
29370;SDS011;16357;52.188;7.838;2024-03-02T04:38:23;10.90;;;7.18;;
29370;SDS011;16357;52.188;7.838;2024-03-02T04:40:50;11.23;;;8.10;;
29370;SDS011;16357;52.188;7.838;2024-03-02T04:43:16;8.55;;;7.00;;
29370;SDS011;16357;52.188;7.838;2024-03-02T04:45:43;10.20;;;7.32;;
29370;SDS011;16357;52.188;7.838;2024-03-02T04:48:09;8.95;;;7.07;;
29370;SDS011;16357;52.188;7.838;2024-03-02T04:50:36;9.05;;;6.80;;
29370;SDS011;16357;52.188;7.838;2024-03-02T04:53:02;9.40;;;7.50;;
29370;SDS011;16357;52.188;7.838;2024-03-02T04:55:29;10.25;;;7.43;;
29370;SDS011;16357;52.188;7.838;2024-03-02T04:58:15;11.13;;;7.40;;
29370;SDS011;16357;52.188;7.838;2024-03-02T05:00:42;10.70;;;7.28;;
29370;SDS011;16357;52.188;7.838;2024-03-02T05:03:09;9.65;;;7.05;;
29370;SDS011;16357;52.188;7.838;2024-03-02T05:05:35;11.18;;;7.90;;
29370;SDS011;16357;52.188;7.838;2024-03-02T05:08:03;11.18;;;7.80;;
29370;SDS011;16357;52.188;7.838;2024-03-02T05:10:30;11.57;;;8.77;;
29370;SDS011;16357;52.188;7.838;2024-03-02T05:12:56;10.65;;;8.32;;
29370;SDS011;16357;52.188;7.838;2024-03-02T05:15:25;11.25;;;8.05;;
29370;SDS011;16357;52.188;7.838;2024-03-02T05:17:51;10.65;;;8.07;;
29370;SDS011;16357;52.188;7.838;2024-03-02T05:20:19;11.18;;;7.90;;
29370;SDS011;16357;52.188;7.838;2024-03-02T05:22:45;11.30;;;8.07;;
29370;SDS011;16357;52.188;7.838;2024-03-02T05:25:13;11.27;;;7.88;;
29370;SDS011;16357;52.188;7.838;2024-03-02T05:27:39;11.38;;;8.00;;
29370;SDS011;16357;52.188;7.838;2024-03-02T05:30:06;10.30;;;8.02;;
29370;SDS011;16357;52.188;7.838;2024-03-02T05:32:33;11.32;;;8.07;;
29370;SDS011;16357;52.188;7.838;2024-03-02T05:35:00;10.45;;;7.63;;
29370;SDS011;16357;52.188;7.838;2024-03-02T05:37:27;10.38;;;7.47;;
29370;SDS011;16357;52.188;7.838;2024-03-02T05:39:53;12.43;;;8.20;;
29370;SDS011;16357;52.188;7.838;2024-03-02T05:42:20;13.10;;;8.77;;
29370;SDS011;16357;52.188;7.838;2024-03-02T05:44:47;9.70;;;7.72;;
29370;SDS011;16357;52.188;7.838;2024-03-02T05:47:13;10.13;;;8.00;;
29370;SDS011;16357;52.188;7.838;2024-03-02T05:49:40;11.13;;;8.27;;
29370;SDS011;16357;52.188;7.838;2024-03-02T05:52:06;13.15;;;9.02;;
29370;SDS011;16357;52.188;7.838;2024-03-02T05:54:33;11.70;;;8.75;;
29370;SDS011;16357;52.188;7.838;2024-03-02T05:56:59;12.52;;;8.85;;
29370;SDS011;16357;52.188;7.838;2024-03-02T05:59:43;11.73;;;8.52;;
29370;SDS011;16357;52.188;7.838;2024-03-02T06:02:12;11.50;;;8.52;;
29370;SDS011;16357;52.188;7.838;2024-03-02T06:04:38;12.10;;;9.05;;
29370;SDS011;16357;52.188;7.838;2024-03-02T06:07:05;12.55;;;8.90;;
29370;SDS011;16357;52.188;7.838;2024-03-02T06:09:32;12.52;;;8.65;;
29370;SDS011;16357;52.188;7.838;2024-03-02T06:11:58;15.13;;;9.50;;
29370;SDS011;16357;52.188;7.838;2024-03-02T06:14:25;13.57;;;9.85;;
29370;SDS011;16357;52.188;7.838;2024-03-02T06:16:51;14.65;;;10.52;;
29370;SDS011;16357;52.188;7.838;2024-03-02T06:19:18;14.50;;;9.68;;
29370;SDS011;16357;52.188;7.838;2024-03-02T06:21:44;13.30;;;9.13;;
29370;SDS011;16357;52.188;7.838;2024-03-02T06:24:11;12.68;;;9.50;;
29370;SDS011;16357;52.188;7.838;2024-03-02T06:26:37;13.88;;;9.65;;
29370;SDS011;16357;52.188;7.838;2024-03-02T06:29:04;13.77;;;9.93;;
29370;SDS011;16357;52.188;7.838;2024-03-02T06:31:30;12.77;;;9.13;;
29370;SDS011;16357;52.188;7.838;2024-03-02T06:33:56;13.50;;;9.85;;
29370;SDS011;16357;52.188;7.838;2024-03-02T06:36:23;15.15;;;9.70;;
29370;SDS011;16357;52.188;7.838;2024-03-02T06:38:49;14.93;;;10.40;;
29370;SDS011;16357;52.188;7.838;2024-03-02T06:41:16;16.25;;;10.48;;
29370;SDS011;16357;52.188;7.838;2024-03-02T06:43:43;16.25;;;11.20;;
29370;SDS011;16357;52.188;7.838;2024-03-02T06:46:09;15.20;;;10.98;;
29370;SDS011;16357;52.188;7.838;2024-03-02T06:48:36;17.08;;;11.88;;
29370;SDS011;16357;52.188;7.838;2024-03-02T06:51:03;14.82;;;11.23;;
29370;SDS011;16357;52.188;7.838;2024-03-02T06:53:29;17.17;;;12.25;;
29370;SDS011;16357;52.188;7.838;2024-03-02T06:55:56;17.20;;;11.68;;
29370;SDS011;16357;52.188;7.838;2024-03-02T06:58:23;16.27;;;11.38;;
29370;SDS011;16357;52.188;7.838;2024-03-02T07:00:49;17.08;;;11.70;;
29370;SDS011;16357;52.188;7.838;2024-03-02T07:03:15;17.70;;;11.25;;
29370;SDS011;16357;52.188;7.838;2024-03-02T07:05:42;16.02;;;11.93;;
29370;SDS011;16357;52.188;7.838;2024-03-02T07:08:09;15.07;;;10.88;;
29370;SDS011;16357;52.188;7.838;2024-03-02T07:10:35;16.90;;;12.43;;
29370;SDS011;16357;52.188;7.838;2024-03-02T07:13:02;16.02;;;11.50;;
29370;SDS011;16357;52.188;7.838;2024-03-02T07:15:28;16.13;;;11.57;;
29370;SDS011;16357;52.188;7.838;2024-03-02T07:17:55;18.13;;;11.48;;
29370;SDS011;16357;52.188;7.838;2024-03-02T07:20:22;16.75;;;11.65;;
29370;SDS011;16357;52.188;7.838;2024-03-02T07:22:48;15.82;;;11.65;;
29370;SDS011;16357;52.188;7.838;2024-03-02T07:25:16;14.80;;;10.80;;
29370;SDS011;16357;52.188;7.838;2024-03-02T07:27:45;15.38;;;10.95;;
29370;SDS011;16357;52.188;7.838;2024-03-02T07:30:15;15.98;;;11.57;;
29370;SDS011;16357;52.188;7.838;2024-03-02T07:32:44;15.07;;;11.20;;
29370;SDS011;16357;52.188;7.838;2024-03-02T07:35:15;16.10;;;11.02;;
29370;SDS011;16357;52.188;7.838;2024-03-02T07:37:41;15.70;;;10.82;;
29370;SDS011;16357;52.188;7.838;2024-03-02T07:40:09;15.30;;;10.93;;
29370;SDS011;16357;52.188;7.838;2024-03-02T07:42:39;14.52;;;10.43;;
29370;SDS011;16357;52.188;7.838;2024-03-02T07:45:07;14.13;;;10.75;;
29370;SDS011;16357;52.188;7.838;2024-03-02T07:47:34;15.63;;;10.35;;
29370;SDS011;16357;52.188;7.838;2024-03-02T07:50:01;14.63;;;10.18;;
29370;SDS011;16357;52.188;7.838;2024-03-02T07:52:28;14.20;;;10.60;;
29370;SDS011;16357;52.188;7.838;2024-03-02T07:54:55;13.45;;;10.13;;
29370;SDS011;16357;52.188;7.838;2024-03-02T07:57:21;14.93;;;10.68;;
29370;SDS011;16357;52.188;7.838;2024-03-02T07:59:48;14.05;;;10.20;;
29370;SDS011;16357;52.188;7.838;2024-03-02T08:02:15;14.68;;;10.77;;
29370;SDS011;16357;52.188;7.838;2024-03-02T08:04:41;14.43;;;9.98;;
29370;SDS011;16357;52.188;7.838;2024-03-02T08:07:08;11.90;;;9.07;;
29370;SDS011;16357;52.188;7.838;2024-03-02T08:09:35;12.75;;;9.18;;
29370;SDS011;16357;52.188;7.838;2024-03-02T08:12:02;11.43;;;8.90;;
29370;SDS011;16357;52.188;7.838;2024-03-02T08:14:28;13.60;;;9.00;;
29370;SDS011;16357;52.188;7.838;2024-03-02T08:16:55;12.15;;;8.38;;
29370;SDS011;16357;52.188;7.838;2024-03-02T08:19:22;14.25;;;9.25;;
29370;SDS011;16357;52.188;7.838;2024-03-02T08:21:49;12.70;;;8.48;;
29370;SDS011;16357;52.188;7.838;2024-03-02T08:24:15;12.10;;;8.80;;
29370;SDS011;16357;52.188;7.838;2024-03-02T08:26:42;10.95;;;7.88;;
29370;SDS011;16357;52.188;7.838;2024-03-02T08:29:09;11.88;;;8.40;;
29370;SDS011;16357;52.188;7.838;2024-03-02T08:31:35;10.60;;;7.97;;
29370;SDS011;16357;52.188;7.838;2024-03-02T08:34:04;10.55;;;7.35;;
29370;SDS011;16357;52.188;7.838;2024-03-02T08:36:31;12.45;;;7.75;;
29370;SDS011;16357;52.188;7.838;2024-03-02T08:38:57;11.48;;;7.30;;
29370;SDS011;16357;52.188;7.838;2024-03-02T08:41:24;10.40;;;7.40;;
29370;SDS011;16357;52.188;7.838;2024-03-02T08:43:50;10.25;;;7.32;;
29370;SDS011;16357;52.188;7.838;2024-03-02T08:46:17;12.93;;;7.35;;
29370;SDS011;16357;52.188;7.838;2024-03-02T08:48:43;10.35;;;6.40;;
29370;SDS011;16357;52.188;7.838;2024-03-02T08:51:10;14.88;;;7.28;;
29370;SDS011;16357;52.188;7.838;2024-03-02T08:53:36;12.68;;;7.03;;
29370;SDS011;16357;52.188;7.838;2024-03-02T08:56:03;8.98;;;6.88;;
29370;SDS011;16357;52.188;7.838;2024-03-02T08:58:31;10.15;;;6.70;;
29370;SDS011;16357;52.188;7.838;2024-03-02T09:00:58;10.75;;;7.13;;
29370;SDS011;16357;52.188;7.838;2024-03-02T09:03:25;9.20;;;6.60;;
29370;SDS011;16357;52.188;7.838;2024-03-02T09:05:51;10.73;;;7.28;;
29370;SDS011;16357;52.188;7.838;2024-03-02T09:08:18;11.15;;;7.20;;
29370;SDS011;16357;52.188;7.838;2024-03-02T09:10:44;11.35;;;7.15;;
29370;SDS011;16357;52.188;7.838;2024-03-02T09:13:11;10.02;;;6.70;;
29370;SDS011;16357;52.188;7.838;2024-03-02T09:15:37;15.77;;;7.32;;
29370;SDS011;16357;52.188;7.838;2024-03-02T09:18:06;9.77;;;6.93;;
29370;SDS011;16357;52.188;7.838;2024-03-02T09:20:33;7.45;;;6.15;;
29370;SDS011;16357;52.188;7.838;2024-03-02T09:22:59;9.20;;;6.63;;
29370;SDS011;16357;52.188;7.838;2024-03-02T09:25:26;15.68;;;7.10;;
29370;SDS011;16357;52.188;7.838;2024-03-02T09:27:53;8.68;;;6.03;;
29370;SDS011;16357;52.188;7.838;2024-03-02T09:30:20;7.38;;;5.72;;
29370;SDS011;16357;52.188;7.838;2024-03-02T09:32:46;7.80;;;5.75;;
29370;SDS011;16357;52.188;7.838;2024-03-02T09:35:15;11.10;;;6.13;;
29370;SDS011;16357;52.188;7.838;2024-03-02T09:37:45;8.00;;;5.53;;
29370;SDS011;16357;52.188;7.838;2024-03-02T09:40:12;7.25;;;5.22;;
29370;SDS011;16357;52.188;7.838;2024-03-02T09:42:40;5.95;;;5.00;;
29370;SDS011;16357;52.188;7.838;2024-03-02T09:45:07;5.97;;;4.50;;
29370;SDS011;16357;52.188;7.838;2024-03-02T09:47:35;9.20;;;4.82;;
29370;SDS011;16357;52.188;7.838;2024-03-02T09:50:01;8.20;;;5.07;;
29370;SDS011;16357;52.188;7.838;2024-03-02T09:52:28;10.93;;;5.60;;
29370;SDS011;16357;52.188;7.838;2024-03-02T09:54:54;6.28;;;4.60;;
29370;SDS011;16357;52.188;7.838;2024-03-02T09:57:21;6.45;;;4.65;;
29370;SDS011;16357;52.188;7.838;2024-03-02T09:59:48;6.60;;;4.70;;
29370;SDS011;16357;52.188;7.838;2024-03-02T10:02:14;7.10;;;5.25;;
29370;SDS011;16357;52.188;7.838;2024-03-02T10:04:41;7.55;;;5.20;;
29370;SDS011;16357;52.188;7.838;2024-03-02T10:07:11;6.80;;;5.13;;
29370;SDS011;16357;52.188;7.838;2024-03-02T10:09:42;7.45;;;5.10;;
29370;SDS011;16357;52.188;7.838;2024-03-02T10:12:10;6.95;;;5.18;;
29370;SDS011;16357;52.188;7.838;2024-03-02T10:14:38;5.35;;;4.47;;
29370;SDS011;16357;52.188;7.838;2024-03-02T10:17:09;6.32;;;4.93;;
29370;SDS011;16357;52.188;7.838;2024-03-02T10:19:36;7.85;;;5.18;;
29370;SDS011;16357;52.188;7.838;2024-03-02T10:22:06;6.63;;;4.82;;
29370;SDS011;16357;52.188;7.838;2024-03-02T10:24:43;6.38;;;4.45;;
29370;SDS011;16357;52.188;7.838;2024-03-02T10:27:22;9.73;;;5.40;;
29370;SDS011;16357;52.188;7.838;2024-03-02T10:29:51;6.15;;;4.60;;
29370;SDS011;16357;52.188;7.838;2024-03-02T10:32:18;8.07;;;4.78;;
29370;SDS011;16357;52.188;7.838;2024-03-02T10:34:44;7.70;;;4.78;;
29370;SDS011;16357;52.188;7.838;2024-03-02T10:37:13;6.43;;;4.63;;
29370;SDS011;16357;52.188;7.838;2024-03-02T10:39:41;7.00;;;5.18;;
29370;SDS011;16357;52.188;7.838;2024-03-02T10:42:08;7.65;;;4.55;;
29370;SDS011;16357;52.188;7.838;2024-03-02T10:44:35;5.18;;;4.25;;
29370;SDS011;16357;52.188;7.838;2024-03-02T10:47:03;7.65;;;4.45;;
29370;SDS011;16357;52.188;7.838;2024-03-02T10:49:30;4.75;;;3.97;;
29370;SDS011;16357;52.188;7.838;2024-03-02T10:51:58;5.72;;;4.45;;
29370;SDS011;16357;52.188;7.838;2024-03-02T10:54:25;5.43;;;4.15;;
29370;SDS011;16357;52.188;7.838;2024-03-02T10:57:01;4.90;;;3.88;;
29370;SDS011;16357;52.188;7.838;2024-03-02T11:02:01;4.28;;;3.08;;
29370;SDS011;16357;52.188;7.838;2024-03-02T11:04:31;3.85;;;2.45;;
29370;SDS011;16357;52.188;7.838;2024-03-02T11:07:03;3.00;;;2.22;;
29370;SDS011;16357;52.188;7.838;2024-03-02T11:09:37;2.35;;;1.67;;
29370;SDS011;16357;52.188;7.838;2024-03-02T11:12:09;3.97;;;1.55;;
29370;SDS011;16357;52.188;7.838;2024-03-02T11:14:42;1.70;;;1.60;;
29370;SDS011;16357;52.188;7.838;2024-03-02T11:17:14;2.22;;;1.50;;
29370;SDS011;16357;52.188;7.838;2024-03-02T11:19:42;2.28;;;1.63;;
29370;SDS011;16357;52.188;7.838;2024-03-02T11:22:10;2.22;;;1.70;;
29370;SDS011;16357;52.188;7.838;2024-03-02T11:24:37;1.63;;;1.40;;
29370;SDS011;16357;52.188;7.838;2024-03-02T11:27:05;2.50;;;1.80;;
29370;SDS011;16357;52.188;7.838;2024-03-02T11:32:13;2.45;;;1.73;;
29370;SDS011;16357;52.188;7.838;2024-03-02T11:34:45;1.92;;;1.48;;
29370;SDS011;16357;52.188;7.838;2024-03-02T11:37:13;3.00;;;1.60;;
29370;SDS011;16357;52.188;7.838;2024-03-02T11:39:40;2.13;;;1.40;;
29370;SDS011;16357;52.188;7.838;2024-03-02T11:42:07;1.83;;;1.50;;
29370;SDS011;16357;52.188;7.838;2024-03-02T11:44:36;2.22;;;1.60;;
29370;SDS011;16357;52.188;7.838;2024-03-02T11:47:07;2.67;;;1.70;;
29370;SDS011;16357;52.188;7.838;2024-03-02T11:49:36;2.78;;;1.63;;
29370;SDS011;16357;52.188;7.838;2024-03-02T11:52:07;2.05;;;1.55;;
29370;SDS011;16357;52.188;7.838;2024-03-02T11:54:36;1.83;;;1.42;;
29370;SDS011;16357;52.188;7.838;2024-03-02T11:57:06;2.20;;;1.30;;
29370;SDS011;16357;52.188;7.838;2024-03-02T11:59:33;1.90;;;1.50;;
29370;SDS011;16357;52.188;7.838;2024-03-02T12:02:00;2.47;;;1.30;;
29370;SDS011;16357;52.188;7.838;2024-03-02T12:04:27;1.90;;;1.42;;
29370;SDS011;16357;52.188;7.838;2024-03-02T12:06:56;3.35;;;1.70;;
29370;SDS011;16357;52.188;7.838;2024-03-02T12:09:26;1.65;;;1.45;;
29370;SDS011;16357;52.188;7.838;2024-03-02T12:12:09;3.65;;;1.70;;
29370;SDS011;16357;52.188;7.838;2024-03-02T12:14:38;3.45;;;1.95;;
29370;SDS011;16357;52.188;7.838;2024-03-02T12:17:05;1.70;;;1.50;;
29370;SDS011;16357;52.188;7.838;2024-03-02T12:19:32;1.77;;;1.40;;
29370;SDS011;16357;52.188;7.838;2024-03-02T12:21:59;2.05;;;1.50;;
29370;SDS011;16357;52.188;7.838;2024-03-02T12:24:27;3.30;;;1.83;;
29370;SDS011;16357;52.188;7.838;2024-03-02T12:26:55;2.28;;;1.55;;
29370;SDS011;16357;52.188;7.838;2024-03-02T12:29:22;2.50;;;1.50;;
29370;SDS011;16357;52.188;7.838;2024-03-02T12:31:51;2.75;;;1.50;;
29370;SDS011;16357;52.188;7.838;2024-03-02T12:34:21;1.30;;;1.20;;
29370;SDS011;16357;52.188;7.838;2024-03-02T12:36:49;2.13;;;1.33;;
29370;SDS011;16357;52.188;7.838;2024-03-02T12:39:19;2.40;;;1.38;;
29370;SDS011;16357;52.188;7.838;2024-03-02T12:41:46;1.95;;;1.20;;
29370;SDS011;16357;52.188;7.838;2024-03-02T12:44:13;1.45;;;1.15;;
29370;SDS011;16357;52.188;7.838;2024-03-02T12:46:39;1.42;;;1.23;;
29370;SDS011;16357;52.188;7.838;2024-03-02T12:49:09;2.28;;;1.20;;
29370;SDS011;16357;52.188;7.838;2024-03-02T12:54:09;1.75;;;1.40;;
29370;SDS011;16357;52.188;7.838;2024-03-02T12:56:37;1.15;;;1.05;;
29370;SDS011;16357;52.188;7.838;2024-03-02T12:59:04;1.25;;;1.13;;
29370;SDS011;16357;52.188;7.838;2024-03-02T13:01:31;1.48;;;0.90;;
29370;SDS011;16357;52.188;7.838;2024-03-02T13:03:58;1.50;;;1.00;;
29370;SDS011;16357;52.188;7.838;2024-03-02T13:06:25;1.77;;;1.00;;
29370;SDS011;16357;52.188;7.838;2024-03-02T13:08:55;1.00;;;0.90;;
29370;SDS011;16357;52.188;7.838;2024-03-02T13:11:22;1.80;;;1.23;;
29370;SDS011;16357;52.188;7.838;2024-03-02T13:13:52;0.82;;;0.82;;
29370;SDS011;16357;52.188;7.838;2024-03-02T13:16:18;1.45;;;1.02;;
29370;SDS011;16357;52.188;7.838;2024-03-02T13:18:55;1.60;;;1.20;;
29370;SDS011;16357;52.188;7.838;2024-03-02T13:21:22;2.35;;;1.05;;
29370;SDS011;16357;52.188;7.838;2024-03-02T13:23:48;1.58;;;1.10;;
29370;SDS011;16357;52.188;7.838;2024-03-02T13:26:15;2.67;;;1.48;;
29370;SDS011;16357;52.188;7.838;2024-03-02T13:28:41;1.40;;;1.00;;
29370;SDS011;16357;52.188;7.838;2024-03-02T13:31:08;1.55;;;1.10;;
29370;SDS011;16357;52.188;7.838;2024-03-02T13:33:34;2.03;;;0.90;;
29370;SDS011;16357;52.188;7.838;2024-03-02T13:36:01;1.20;;;0.98;;
29370;SDS011;16357;52.188;7.838;2024-03-02T13:38:29;1.92;;;1.10;;
29370;SDS011;16357;52.188;7.838;2024-03-02T13:40:55;2.42;;;1.30;;
29370;SDS011;16357;52.188;7.838;2024-03-02T13:43:22;1.20;;;1.08;;
29370;SDS011;16357;52.188;7.838;2024-03-02T13:45:50;1.95;;;1.17;;
29370;SDS011;16357;52.188;7.838;2024-03-02T13:48:18;2.80;;;1.02;;
29370;SDS011;16357;52.188;7.838;2024-03-02T13:50:44;1.17;;;0.90;;
29370;SDS011;16357;52.188;7.838;2024-03-02T13:53:12;1.10;;;0.90;;
29370;SDS011;16357;52.188;7.838;2024-03-02T13:55:38;1.13;;;0.70;;
29370;SDS011;16357;52.188;7.838;2024-03-02T13:58:05;1.65;;;0.90;;
29370;SDS011;16357;52.188;7.838;2024-03-02T14:00:31;1.25;;;1.00;;
29370;SDS011;16357;52.188;7.838;2024-03-02T14:02:58;2.58;;;1.10;;
29370;SDS011;16357;52.188;7.838;2024-03-02T14:05:25;1.10;;;1.00;;
29370;SDS011;16357;52.188;7.838;2024-03-02T14:07:51;1.35;;;0.90;;
29370;SDS011;16357;52.188;7.838;2024-03-02T14:10:18;1.00;;;0.80;;
29370;SDS011;16357;52.188;7.838;2024-03-02T14:12:48;0.98;;;0.80;;
29370;SDS011;16357;52.188;7.838;2024-03-02T14:15:15;1.10;;;0.90;;
29370;SDS011;16357;52.188;7.838;2024-03-02T14:17:43;1.23;;;0.80;;
29370;SDS011;16357;52.188;7.838;2024-03-02T14:20:10;1.15;;;0.80;;
29370;SDS011;16357;52.188;7.838;2024-03-02T14:22:38;2.38;;;0.80;;
29370;SDS011;16357;52.188;7.838;2024-03-02T14:25:05;1.15;;;0.85;;
29370;SDS011;16357;52.188;7.838;2024-03-02T14:27:32;1.55;;;1.10;;
29370;SDS011;16357;52.188;7.838;2024-03-02T14:35:11;1.40;;;1.02;;
29370;SDS011;16357;52.188;7.838;2024-03-02T14:37:38;1.40;;;1.00;;
29370;SDS011;16357;52.188;7.838;2024-03-02T14:40:04;1.95;;;1.30;;
29370;SDS011;16357;52.188;7.838;2024-03-02T14:42:32;4.55;;;1.40;;
29370;SDS011;16357;52.188;7.838;2024-03-02T14:44:59;1.30;;;1.00;;
29370;SDS011;16357;52.188;7.838;2024-03-02T14:47:26;1.40;;;1.15;;
29370;SDS011;16357;52.188;7.838;2024-03-02T14:49:52;2.05;;;1.08;;
29370;SDS011;16357;52.188;7.838;2024-03-02T14:52:19;1.30;;;0.90;;
29370;SDS011;16357;52.188;7.838;2024-03-02T14:54:45;2.00;;;1.20;;
29370;SDS011;16357;52.188;7.838;2024-03-02T14:57:13;1.50;;;1.00;;
29370;SDS011;16357;52.188;7.838;2024-03-02T14:59:39;2.85;;;1.40;;
29370;SDS011;16357;52.188;7.838;2024-03-02T15:02:07;3.92;;;1.65;;
29370;SDS011;16357;52.188;7.838;2024-03-02T15:04:34;2.78;;;1.80;;